Tiempo atmosférico en la estación meteorológica de Hervas, Cáceres (738 m.)



Fecha
DESCASC
Temp. máxima en grados centígrados (hora)
DESCASC
Temp. mínima en grados centígrados (hora)
DESCASC
Temp. media en grados centígrados
DESCASC
Racha de viento máxima en m/sg (hora)
DESCASC
Velocidad máxima media en intervalos de 10 minutos(hora)
DESCASC
Precipitaciones diarias en mm
DESCASC
Precipitaciones de 00:00 a 06:00 en mm
DESCASC
Precipitaciones de 06:00 a 12:00 en mm
DESCASC
Precipitaciones de 12:00 a 18:00 en mm
DESCASC
Precipitaciones de 18:00 a 24:00 en mm
DESCASC
29-10-2020 17.8 (16:50) 7.3 (03:30) 12.5 5.56 (07:50) 3.33 (07:30) 0 0 0 0 0
28-10-2020 14.5 (14:30) 8.9 (22:10) 11.7 4.72 (20:50) 3.06 (20:20) 0.6 0 0.6 0 0
27-10-2020 12.6 (14:30) 4.6 (00:00) 8.6 5.28 (13:30) 3.33 (00:30) 1.8 0 0 0 1.8
26-10-2020 11.5 (16:50) 5.2 (00:00) 8.3 8.61 (11:10) 3.33 (11:00) 0 0 0 0 0
25-10-2020 14.7 (14:30) 7.8 (00:00) 11.3 13.89 (10:40) 5.56 (14:30) 11.2 0.2 1 6.6 3.4
24-10-2020 13 (15:20) 5.9 (00:00) 9.5 7.78 (16:30) 3.89 (16:30) 0 0 0 0 0
23-10-2020 13.7 (16:40) 8.5 (00:00) 11.1 4.17 (20:40) 3.06 (21:30) 3.2 0 3.2 0 0
22-10-2020 14.9 (15:00) 9.8 (00:00) 12.3 10.28 (05:10) 3.89 (14:40) 26.2 12 3.2 4.2 6.8
21-10-2020 15.6 (14:20) 11.4 (00:00) 13.5 17.5 (03:40) 7.22 (03:40) 21.2 10.6 3.8 0.4 6.4
20-10-2020 16.3 (00:00) 12.5 (00:00) 14.4 25.56 (20:50) 11.11 (03:40) 197.6 36 2.6 72 87
19-10-2020 21.9 (14:10) 14.7 (00:00) 18.3 19.72 (03:30) 11.11 (06:30) 4 0 0 0 4
18-10-2020 20.4 (17:40) 8.5 (00:00) 14.4 8.33 (23:50) 3.06 (07:30) 0 0 0 0 0
17-10-2020 18.3 (17:50) 6.4 (00:00) 12.3 5.28 (20:00) 3.61 (05:10) 0 0 0 0 0
16-10-2020 16.6 (16:50) 5.1 (00:00) 10.9 4.17 (22:20) 3.33 (22:30) 0 0 0 0 0
15-10-2020 17 (16:40) 5.1 (00:00) 11 8.33 (16:00) 4.17 (16:10) 0 0 0 0 0
14-10-2020 16.9 (16:50) 5.7 (00:00) 11.3 8.89 (11:40) 4.44 (12:00) 0 0 0 0 0
13-10-2020 21.8 (15:50) 10.1 (00:00) 15.9 6.67 (17:10) 3.33 (01:20) 0 0 0 0 0
12-10-2020 18.9 (16:40) 5.4 (00:00) 12.1 9.44 (18:40) 4.17 (16:50) 0 0 0 0 0
11-10-2020 19.3 (16:30) 7.6 (00:00) 13.4 10 (15:10) 5 (18:30) 0 0 0 0 0
10-10-2020 24.1 (16:10) 12.4 (00:00) 18.3 8.33 (15:20) 4.72 (15:20) 0 0 0 0 0
09-10-2020 26.2 (17:40) 13.3 (00:00) 19.8 5 (01:50) 3.89 (01:50) 0 0 0 0 0
08-10-2020 25.8 (16:20) 13.1 (00:00) 19.4 5 (16:20) 3.33 (00:50) 0 0 0 0 0
07-10-2020 25.5 (17:10) 9.1 (00:00) 17.3 5.28 (20:50) 3.89 (20:00) 0 0 0 0 0
06-10-2020 23.8 (17:10) 11.3 (00:00) 17.5 7.78 (11:30) 3.61 (11:30) 0 0 0 0 0
05-10-2020 19.1 (17:40) 7.5 (00:00) 13.3 7.5 (12:40) 3.61 (12:30) 0 0 0 0 0
04-10-2020 16.7 (17:20) 6.6 (00:00) 11.7 10.28 (18:10) 4.44 (18:30) 0.6 0 0.6 0 0
03-10-2020 15 (16:30) 6.7 (00:00) 10.8 7.78 (16:30) 4.17 (16:30) 0 0 0 0 0
02-10-2020 14.4 (09:20) 6.4 (00:00) 10.4 17.5 (09:00) 6.67 (09:10) 5.8 0 4.8 1 0
01-10-2020 -- (--) -- (--) -- -- (--) -- (--) -- 0 -- -- 0
30-09-2020 24.9 (17:40) 13.6 (00:00) 19.3 6.11 (17:50) 3.89 (20:30) 0 0 0 0 0

Gráficas

Temp. máximas Temp. mínimas Temp. medias Precipitaciones Rachas de viento máximas Velocidades máximas media en intervalos de 10 minutos

Datos horarios

Fecha y hora oficial Temperatura (ºC) Velocidad del viento (km/h) Dirección del viento Racha (km/h) Dirección de racha Precipitación (mm) Presión (hPa) Tendencia (hPa) Humedad (%)
2020-10-29 23:00:00 10.5 9 Sudeste 12 Sur 0 -- -- 96
2020-10-29 22:00:00 10.2 8 Sudeste 14 Sur 0 -- -- 97
2020-10-29 21:00:00 10.4 8 Sudeste 12 Sur 0 -- -- 94
2020-10-29 20:00:00 11.2 8 Sudeste 14 Sur 0 -- -- 94
2020-10-29 19:00:00 11.9 8 Sur 13 Sur 0 -- -- 90
2020-10-29 18:00:00 13.7 10 Sur 13 Sur 0 -- -- 84
2020-10-29 17:00:00 17.7 3 Noroeste 8 Oeste 0 -- -- 68
2020-10-29 16:00:00 17.1 5 Noroeste 11 Oeste 0 -- -- 69
2020-10-29 15:00:00 16.8 3 Sudoeste 9 Sudoeste 0 -- -- 66
2020-10-29 14:00:00 15.6 5 Noroeste 11 Noroeste 0 -- -- 71
2020-10-29 13:00:00 14.7 5 Noroeste 14 Noroeste 0 -- -- 72
2020-10-29 12:00:00 14.5 4 Sudoeste 10 Sudoeste 0 -- -- 73
2020-10-29 11:00:00 13.4 3 Sur 14 Sudeste 0 -- -- 73
2020-10-29 10:00:00 11.6 9 Sudeste 17 Sudeste 0 -- -- 82
2020-10-29 09:00:00 10.7 8 Sudeste 15 Sudeste 0 -- -- 87
2020-10-29 08:00:00 9.4 8 Sudeste 20 Sudeste 0 -- -- 90
2020-10-29 07:00:00 9.8 5 Sudeste 14 Sudeste 0 -- -- 94
2020-10-29 06:00:00 9.1 7 Sur 13 Sur 0 -- -- 96
2020-10-29 05:00:00 7.6 6 Sudeste 15 Sur 0 -- -- 95
2020-10-29 04:00:00 7.7 9 Sur 14 Sur 0 -- -- 98
2020-10-29 03:00:00 7.7 7 Sur 10 Sudeste 0 -- -- 97
2020-10-29 02:00:00 7.9 7 Sudeste 10 Sudeste 0 -- -- 96
2020-10-29 01:00:00 8.1 9 Sur 14 Sur 0 -- -- 96
2020-10-29 00:00:00 9 11 Sur 15 Sur 0 -- -- 91
2020-10-28 23:00:00 9.3 8 Sur 14 Sur 0 -- -- 93
2020-10-28 22:00:00 9.2 9 Sur 15 Sur 0 -- -- 93
2020-10-28 21:00:00 9.8 10 Sur 17 Sur 0 -- -- 91
2020-10-28 20:00:00 10.2 6 Sudeste 14 Sudeste 0 -- -- 91
2020-10-28 19:00:00 12.1 5 Sudeste 12 Sur 0 -- -- 91
2020-10-28 18:00:00 13.3 4 Sudeste 9 Noroeste 0 -- -- 92
2020-10-28 17:00:00 13.6 4 Noroeste 9 Noroeste 0 -- -- 96
2020-10-28 16:00:00 13.7 3 Noroeste 10 Noroeste 0 -- -- 95
2020-10-28 15:00:00 13.9 6 Noroeste 12 Noroeste 0 -- -- 93
2020-10-28 14:00:00 14 5 Noroeste 9 Noroeste 0 -- -- 92
2020-10-28 13:00:00 12.8 4 Oeste 9 Noroeste 0 -- -- 98
2020-10-28 12:00:00 12.3 2 Norte 7 Oeste 0 -- -- 99
2020-10-28 11:00:00 12.1 4 Noroeste 9 Noroeste 0 -- -- 98
2020-10-28 10:00:00 11.2 0 Calma 11 Oeste 0.2 -- -- 99
2020-10-28 09:00:00 11.3 0 Calma 5 Sudeste 0.4 -- -- 98
2020-10-28 08:00:00 10.8 3 Este 6 Este 0 -- -- 96
2020-10-28 07:00:00 10.5 3 Sudeste 8 Sur 0 -- -- 97
2020-10-28 06:00:00 10.2 4 Sudeste 5 Sudeste 0 -- -- 98
2020-10-28 05:00:00 10.4 4 Sudeste 7 Sudeste 0 -- -- 97
2020-10-28 04:00:00 10.2 0 Calma 8 Sudeste 0 -- -- 97
2020-10-28 03:00:00 9.9 6 Sudeste 8 Este 0 -- -- 97
2020-10-28 02:00:00 9.9 4 Sur 8 Sur 0 -- -- 96
2020-10-28 01:00:00 10.2 2 Sur 6 Sudeste 0 -- -- 96
2020-10-28 00:00:00 9.8 4 Sudeste 9 Sudeste 0 -- -- 96
2020-10-27 23:00:00 9.7 6 Sudeste 9 Sudeste 0 -- -- 95
2020-10-27 22:00:00 9.4 2 Sudoeste 6 Sur 0 -- -- 96
2020-10-27 21:00:00 9.3 2 Sudeste 5 Este 0.4 -- -- 96
2020-10-27 20:00:00 9.4 3 Sudeste 5 Sur 0.6 -- -- 94
2020-10-27 19:00:00 10.3 0 Calma 4 Este 0.8 -- -- 91
2020-10-27 18:00:00 11.1 2 Este 5 Sudeste 0 -- -- 78
2020-10-27 17:00:00 11 3 Noroeste 19 Oeste 0 -- -- 77
2020-10-27 16:00:00 11.6 6 Oeste 17 Oeste 0 -- -- 74
2020-10-27 15:00:00 12.2 6 Noroeste 18 Noroeste 0 -- -- 70
2020-10-27 14:00:00 11.8 3 Noroeste 19 Noroeste 0 -- -- 68
2020-10-27 13:00:00 11.2 8 Noroeste 18 Oeste 0 -- -- 66
2020-10-27 12:00:00 10.6 6 Oeste 13 Noroeste 0 -- -- 72
2020-10-27 11:00:00 9.1 5 Noroeste 13 Noroeste 0 -- -- 76
2020-10-27 10:00:00 9.5 2 Nordeste 10 Sur 0 -- -- 79
2020-10-27 09:00:00 6.8 5 Sur 9 Sur 0 -- -- 90
2020-10-27 08:00:00 5.9 6 Sudeste 15 Sur 0 -- -- 87
2020-10-27 07:00:00 6.1 10 Sur 14 Sur 0 -- -- 84
2020-10-27 06:00:00 5.1 8 Sur 15 Sur 0 -- -- 88
2020-10-27 05:00:00 4.8 6 Sudeste 12 Sur 0 -- -- 89
2020-10-27 04:00:00 4.7 8 Sudeste 16 Sur 0 -- -- 92
2020-10-27 03:00:00 5 9 Sudeste 17 Sur 0 -- -- 90
2020-10-27 02:00:00 4.9 7 Sudeste 14 Sur 0 -- -- 91
2020-10-27 01:00:00 5.6 9 Sudeste 16 Sur 0 -- -- 85
2020-10-27 00:00:00 5.6 9 Sur 16 Sur 0 -- -- 86
2020-10-26 23:00:00 5.8 8 Sudeste 14 Sudeste 0 -- -- 86
2020-10-26 22:00:00 7.2 6 Sudeste 13 Sur 0 -- -- 82
2020-10-26 21:00:00 7.5 5 Sudeste 14 Sur 0 -- -- 82
2020-10-26 20:00:00 7.1 5 Sudeste 10 Sur 0 -- -- 84
2020-10-26 19:00:00 6.8 6 Sudeste 13 Sur 0 -- -- 81
2020-10-26 18:00:00 9.9 3 Sudeste 13 Nordeste 0 -- -- 64
2020-10-26 17:00:00 11.2 5 Nordeste 16 Nordeste 0 -- -- 57
2020-10-26 16:00:00 10.9 7 Nordeste 15 Norte 0 -- -- 56
2020-10-26 15:00:00 11 6 Nordeste 22 Nordeste 0 -- -- 59
2020-10-26 14:00:00 10.2 9 Nordeste 21 Nordeste 0 -- -- 61
2020-10-26 13:00:00 9.6 8 Norte 19 Norte 0 -- -- 64
2020-10-26 12:00:00 9.9 6 Norte 31 Noroeste 0 -- -- 62
2020-10-26 11:00:00 8.9 12 Noroeste 24 Noroeste 0 -- -- 64
2020-10-26 10:00:00 7.9 6 Nordeste 17 Norte 0 -- -- 68
2020-10-26 09:00:00 6.4 3 Nordeste 17 Norte 0 -- -- 77
2020-10-26 08:00:00 6.5 9 Nordeste 22 Nordeste 0 -- -- 76
2020-10-26 07:00:00 6.1 3 Este 15 Este 0 -- -- 82
2020-10-26 06:00:00 5.9 5 Sudeste 8 Norte 0 -- -- 91
2020-10-26 05:00:00 6.6 0 Calma 9 Noroeste 0 -- -- 87
2020-10-26 04:00:00 6.6 0 Calma 5 Sudoeste 0 -- -- 88
2020-10-26 03:00:00 6.8 4 Sudoeste 9 Sur 0 -- -- 86
2020-10-26 02:00:00 6.9 2 Sudeste 8 Sudeste 0 -- -- 93
2020-10-26 01:00:00 7.2 2 Sudeste 6 Sudeste 0 -- -- 94
2020-10-26 00:00:00 7.8 0 Calma 9 Sudoeste 0 -- -- 92
2020-10-25 23:00:00 8 3 Sur 8 Sur 0 -- -- 88
2020-10-25 22:00:00 8.3 6 Sudeste 10 Sudeste 0 -- -- 93
2020-10-25 21:00:00 9 4 Sur 10 Noroeste 0 -- -- 90
2020-10-25 20:00:00 10 6 Sur 10 Sur 0 -- -- 89
2020-10-25 19:00:00 10.7 5 Sur 26 Oeste 3.4 -- -- 90
2020-10-25 18:00:00 12.2 10 Sudoeste 37 Sudoeste 1.6 -- -- 83
2020-10-25 17:00:00 12.3 8 Sudoeste 33 Sudoeste 0 -- -- 84
2020-10-25 16:00:00 12.2 11 Oeste 30 Sudoeste 3.4 -- -- 96
2020-10-25 15:00:00 14.5 16 Sudoeste 45 Sudoeste 0.4 -- -- 83
2020-10-25 14:00:00 13.7 11 Sudoeste 38 Sur 0.6 -- -- 84
2020-10-25 13:00:00 13.8 17 Sudoeste 40 Sur 0.6 -- -- 81
2020-10-25 12:00:00 13.5 16 Sudoeste 40 Sudoeste 1 -- -- 81
2020-10-25 11:00:00 13.4 14 Sudoeste 50 Oeste 0 -- -- 76
2020-10-25 10:00:00 13.7 13 Sudoeste 43 Sur 0 -- -- 74
2020-10-25 09:00:00 13.7 7 Sudoeste 38 Sur 0 -- -- 69
2020-10-25 08:00:00 12.5 10 Sudoeste 40 Sur 0 -- -- 75
2020-10-25 07:00:00 11.8 6 Sudoeste 33 Sudoeste 0 -- -- 86
2020-10-25 06:00:00 12 14 Sudoeste 39 Sudoeste 0 -- -- 82
2020-10-25 05:00:00 12.7 12 Sudoeste 42 Sudoeste 0.2 -- -- 80
2020-10-25 04:00:00 12.5 7 Sudoeste 37 Sur 0 -- -- 76
2020-10-25 03:00:00 11.4 5 Oeste 25 Oeste 0 -- -- 86
2020-10-25 02:00:00 12.8 3 Sudoeste 29 Sur 0 -- -- 70
2020-10-25 01:00:00 11.5 4 Este 9 Sudeste 0 -- -- 82
2020-10-25 00:00:00 11.4 4 Sur 10 Sudeste 0 -- -- 82
2020-10-24 23:00:00 11.9 2 Sur 16 Sur 0 -- -- 79
2020-10-24 22:00:00 11.1 2 Norte 8 Sudeste 0 -- -- 84
2020-10-24 21:00:00 11.3 3 Sudeste 9 Nordeste 0 -- -- 83
2020-10-24 20:00:00 11.6 2 Sudeste 13 Sur 0 -- -- 80
2020-10-24 19:00:00 11.9 4 Sudoeste 15 Sur 0 -- -- 74
2020-10-24 18:00:00 12 5 Sudoeste 26 Oeste 0 -- -- 71
2020-10-24 17:00:00 13 9 Oeste 28 Oeste 0 -- -- 72
2020-10-24 16:00:00 12.8 11 Oeste 24 Oeste 0 -- -- 72
2020-10-24 15:00:00 12.4 3 Oeste 8 Oeste 0 -- -- 82
2020-10-24 14:00:00 11.2 3 Norte 14 Noroeste 0 -- -- 85
2020-10-24 13:00:00 10.6 8 Oeste 15 Oeste 0 -- -- 84
2020-10-24 12:00:00 11.1 4 Noroeste 8 Norte 0 -- -- 81
2020-10-24 11:00:00 10 0 Calma 9 Sudeste 0 -- -- 82
2020-10-24 10:00:00 6.1 7 Sudeste 12 Sur 0 -- -- 97
2020-10-24 09:00:00 6.1 5 Sudeste 9 Sudeste 0 -- -- 95
2020-10-24 08:00:00 6.1 6 Sudeste 13 Sur 0 -- -- 96
2020-10-24 07:00:00 6.8 8 Sudeste 13 Sur 0 -- -- 93
2020-10-24 06:00:00 6.8 6 Sudeste 13 Sudeste 0 -- -- 93
2020-10-24 05:00:00 7.9 10 Sur 17 Sur 0 -- -- 86
2020-10-24 04:00:00 8.1 11 Sur 19 Sur 0 -- -- 89
2020-10-24 03:00:00 8.3 10 Sur 17 Sur 0 -- -- 89
2020-10-24 02:00:00 8.5 8 Sur 16 Sur 0 -- -- 93
2020-10-24 01:00:00 9.3 9 Sur 14 Sur 0 -- -- 90
2020-10-24 00:00:00 10 8 Sur 13 Sur 0 -- -- 89
2020-10-23 23:00:00 9.4 8 Sur 14 Sur 0 -- -- 92
2020-10-23 22:00:00 10.3 6 Sudeste 14 Sur 0 -- -- 89
2020-10-23 21:00:00 9.5 10 Sur 15 Sur 0 -- -- 89
2020-10-23 20:00:00 9.8 8 Sur 12 Sur 0 -- -- 89
2020-10-23 19:00:00 12.6 0 Calma 6 Sur 0 -- -- 81
2020-10-23 18:00:00 12.7 2 Este 8 Sudeste 0 -- -- 77
2020-10-23 17:00:00 13.1 2 Norte 8 Noroeste 0 -- -- 76
2020-10-23 16:00:00 12.7 2 Oeste 10 Oeste 0 -- -- 84
2020-10-23 15:00:00 12.5 2 Este 5 Sudeste 0 -- -- 79
2020-10-23 14:00:00 11.3 0 Calma 7 Noroeste 0 -- -- 85
2020-10-23 13:00:00 11 2 Sudeste 6 Oeste 0 -- -- 88
2020-10-23 12:00:00 10.3 0 Calma 6 Oeste 0 -- -- 92
2020-10-23 11:00:00 9.8 2 Norte 5 Noroeste 0 -- -- 96
2020-10-23 10:00:00 8.7 2 Sur 7 Sur 1.6 -- -- 98
2020-10-23 09:00:00 8.6 4 Sudeste 11 Sur 0 -- -- 95
2020-10-23 08:00:00 8.9 3 Sudeste 8 Norte 0.8 -- -- 97
2020-10-23 07:00:00 9.3 2 Oeste 5 Noroeste 0.8 -- -- 99
2020-10-23 06:00:00 9.2 0 Calma 5 Sudeste 0 -- -- 98
2020-10-23 05:00:00 9.4 0 Calma 7 Sudoeste 0 -- -- 97
2020-10-23 04:00:00 9.1 3 Sudeste 6 Sudeste 0 -- -- 97
2020-10-23 03:00:00 9.4 3 Sudeste 8 Este 0 -- -- 97
2020-10-23 02:00:00 9.4 3 Sur 8 Sudeste 0 -- -- 98
2020-10-23 01:00:00 9.7 4 Sur 8 Sur 0 -- -- 97
2020-10-23 00:00:00 10 6 Sudeste 13 Sur 0 -- -- 97
2020-10-22 23:00:00 9.8 8 Sudeste 19 Sudeste 2.8 -- -- 93
2020-10-22 22:00:00 10.8 6 Sudeste 16 Sur 4 -- -- 90
2020-10-22 21:00:00 11.2 5 Sudeste 9 Sur 0 -- -- 94
2020-10-22 20:00:00 11.5 4 Sudeste 7 Sur 0 -- -- 95
2020-10-22 19:00:00 13 0 Calma 5 Norte 0 -- -- 91
2020-10-22 18:00:00 13.2 2 Sur 10 Nordeste 0 -- -- 90
2020-10-22 17:00:00 12.9 5 Nordeste 23 Oeste 2.8 -- -- 97
2020-10-22 16:00:00 12.2 6 Noroeste 21 Oeste 0 -- -- 95
2020-10-22 15:00:00 14.9 10 Sur 28 Sudoeste 0 -- -- 74
2020-10-22 14:00:00 14.2 4 Noroeste 15 Noroeste 0 -- -- 92
2020-10-22 13:00:00 12.3 10 Noroeste 25 Oeste 1.4 -- -- 99
2020-10-22 12:00:00 11.8 6 Noroeste 18 Noroeste 1 -- -- 99
2020-10-22 11:00:00 11.8 7 Noroeste 21 Noroeste 1.6 -- -- 100
2020-10-22 10:00:00 11.4 3 Noroeste 8 Noroeste 0 -- -- 100
2020-10-22 09:00:00 11 0 Calma 9 Sudeste 0.2 -- -- 100
2020-10-22 08:00:00 10.9 3 Noroeste 14 Noroeste 0.2 -- -- 99
2020-10-22 07:00:00 11.2 9 Oeste 20 Sudeste 0.2 -- -- 99
2020-10-22 06:00:00 11.4 5 Sudeste 37 Sudoeste 0.8 -- -- 96
2020-10-22 05:00:00 11.4 5 Sudeste 19 Norte 4.4 -- -- 96
2020-10-22 04:00:00 11.6 0 Calma 12 Sur 4.6 -- -- 96
2020-10-22 03:00:00 11.7 5 Este 14 Sudoeste 0.4 -- -- 94
2020-10-22 02:00:00 11.6 0 Calma 6 Norte 0.8 -- -- 96
2020-10-22 01:00:00 11.6 4 Sudeste 9 Nordeste 1 -- -- 96
2020-10-22 00:00:00 12.1 2 Sudoeste 23 Sudoeste 0.8 -- -- 91
2020-10-21 23:00:00 11.4 4 Sur 12 Sudoeste 1.4 -- -- 93
2020-10-21 22:00:00 12.4 6 Sur 32 Sur 0.4 -- -- 87
2020-10-21 21:00:00 13 20 Sur 51 Sur 1 -- -- 78
2020-10-21 20:00:00 12.2 6 Sur 26 Sudeste 2.8 -- -- 83
2020-10-21 19:00:00 12.8 9 Nordeste 26 Sur 0 -- -- 90
2020-10-21 18:00:00 15.3 15 Sur 48 Sur 0 -- -- 63
2020-10-21 17:00:00 15.6 22 Sur 45 Sur 0.2 -- -- 62
2020-10-21 16:00:00 15.4 18 Sur 42 Sur 0 -- -- 63
2020-10-21 15:00:00 14.9 13 Sur 34 Sudoeste 0 -- -- 66
2020-10-21 14:00:00 14.8 12 Sudoeste 31 Sur 0 -- -- 63
2020-10-21 13:00:00 13.5 9 Sur 32 Oeste 0.2 -- -- 76
2020-10-21 12:00:00 12.4 3 Sudoeste 31 Sudoeste 2.8 -- -- 87
2020-10-21 11:00:00 12.5 6 Sudoeste 29 Sur 0.2 -- -- 84
2020-10-21 10:00:00 12.6 11 Sur 46 Sur 0.6 -- -- 85
2020-10-21 09:00:00 12.2 7 Sur 32 Sudoeste 0 -- -- 84
2020-10-21 08:00:00 12.4 10 Sur 42 Sur 0 -- -- 82
2020-10-21 07:00:00 12.8 12 Sur 42 Sudoeste 0.2 -- -- 79
2020-10-21 06:00:00 12.7 15 Sudoeste 28 Sudoeste 1 -- -- 82
2020-10-21 05:00:00 12.5 7 Sudoeste 51 Sur 1.8 -- -- 84
2020-10-21 04:00:00 13 17 Sur 63 Sur 2.2 -- -- 84
2020-10-21 03:00:00 12.9 13 Sur 44 Sudoeste 2.8 -- -- 84
2020-10-21 02:00:00 12.8 14 Sudoeste 54 Sur 2.6 -- -- 83
2020-10-21 01:00:00 13.9 16 Sur 51 Sur 0.2 -- -- 73
2020-10-21 00:00:00 12.5 5 Sur 60 Oeste 2.8 -- -- 86
2020-10-20 23:00:00 15.2 18 Sudoeste 48 Sur 11.6 -- -- 78
2020-10-20 22:00:00 15.4 29 Sur 68 Sudeste 8.2 -- -- 84
2020-10-20 21:00:00 15.2 26 Sur 92 Sur 21.6 -- -- 83
2020-10-20 20:00:00 14.9 12 Sur 55 Este 25.4 -- -- 85
2020-10-20 19:00:00 15.3 15 Sur 56 Sudeste 17.4 -- -- 83
2020-10-20 18:00:00 15.1 17 Sur 59 Este 19.4 -- -- 85
2020-10-20 17:00:00 14.9 23 Sudeste 69 Sudeste 19.4 -- -- 84
2020-10-20 16:00:00 15.5 24 Sudeste 85 Sudeste 10 -- -- 81
2020-10-20 15:00:00 15.8 18 Sudeste 58 Sudeste 9.6 -- -- 85
2020-10-20 14:00:00 15 21 Sudeste 59 Sudeste 7.8 -- -- 82
2020-10-20 13:00:00 14.9 33 Sudeste 59 Sudeste 5.8 -- -- 81
2020-10-20 12:00:00 15 23 Sur 45 Sudeste 2.2 -- -- 80
2020-10-20 11:00:00 15.5 17 Sur 48 Sur 0.2 -- -- 77
2020-10-20 10:00:00 15.5 19 Sur 46 Sur 0.2 -- -- 80
2020-10-20 09:00:00 15.4 28 Sur 52 Sudeste 0 -- -- 80
2020-10-20 08:00:00 14.9 33 Sur 67 Sur 0 -- -- 83
2020-10-20 07:00:00 14.9 40 Sur 64 Sudeste 0 -- -- 83
2020-10-20 06:00:00 15.4 36 Sur 66 Sudeste 2.2 -- -- 78
2020-10-20 05:00:00 14.5 34 Sur 67 Sudeste 10.6 -- -- 82
2020-10-20 04:00:00 14.9 37 Sur 67 Sur 7.4 -- -- 79
2020-10-20 03:00:00 14.3 36 Sur 71 Sur 5.4 -- -- 80
2020-10-20 02:00:00 13.9 35 Sur 56 Sudeste 8 -- -- 81
2020-10-20 01:00:00 14.5 30 Sur 64 Sur 2.4 -- -- 69
2020-10-20 00:00:00 16.3 36 Sur 70 Sudeste 0.6 -- -- 56
2020-10-19 23:00:00 17.8 23 Sur 69 Sur 0.2 -- -- 51
2020-10-19 22:00:00 16 35 Sur 61 Sudeste 1.6 -- -- 63
2020-10-19 21:00:00 16 26 Sur 53 Sudeste 1.4 -- -- 61
2020-10-19 20:00:00 17.1 7 Sur 37 Sur 0.2 -- -- 55
2020-10-19 19:00:00 20.8 18 Sur 44 Sur 0 -- -- 30
2020-10-19 18:00:00 21.3 12 Sur 53 Sudeste 0 -- -- 29
2020-10-19 17:00:00 21.4 27 Sudeste 57 Sudeste 0 -- -- 27
2020-10-19 16:00:00 21.2 24 Sur 57 Sudeste 0 -- -- 28
2020-10-19 15:00:00 21.4 27 Sudeste 63 Sur 0 -- -- 27
2020-10-19 14:00:00 21.8 27 Sur 59 Sur 0 -- -- 26
2020-10-19 13:00:00 21.2 26 Sur 65 Sur 0 -- -- 27
2020-10-19 12:00:00 20.7 23 Sur 53 Sudeste 0 -- -- 28
2020-10-19 11:00:00 19.6 16 Sur 53 Sudeste 0 -- -- 29
2020-10-19 10:00:00 18 30 Sudeste 63 Sudeste 0 -- -- 31
2020-10-19 09:00:00 18.2 26 Sur 58 Sur 0 -- -- 30
2020-10-19 08:00:00 18.3 28 Sudeste 60 Sudeste 0 -- -- 31
2020-10-19 07:00:00 18.5 36 Sudeste 63 Sudeste 0 -- -- 31
2020-10-19 06:00:00 18.6 31 Sudeste 66 Sudeste 0 -- -- 30
2020-10-19 05:00:00 18.7 37 Sudeste 59 Sudeste 0 -- -- 30
2020-10-19 04:00:00 18.7 30 Sur 71 Sudeste 0 -- -- 25
2020-10-19 03:00:00 18.9 33 Sudeste 68 Sudeste 0 -- -- 24
2020-10-19 02:00:00 18.9 33 Sudeste 55 Sudeste 0 -- -- 25
2020-10-19 01:00:00 18.4 22 Sudeste 43 Sur 0 -- -- 26
2020-10-19 00:00:00 17.9 10 Sudeste 30 Sur 0 -- -- 28
2020-10-18 23:00:00 13.6 4 Este 13 Sudeste 0 -- -- 42
2020-10-18 22:00:00 11.4 7 Sudeste 14 Sur 0 -- -- 57
2020-10-18 21:00:00 12.1 7 Sur 13 Sur 0 -- -- 56
2020-10-18 20:00:00 12.9 7 Sudeste 14 Sudeste 0 -- -- 59
2020-10-18 19:00:00 16 7 Sur 12 Sur 0 -- -- 52
2020-10-18 18:00:00 19.6 0 Calma 5 Sur 0 -- -- 45
2020-10-18 17:00:00 20.1 3 Noroeste 6 Noroeste 0 -- -- 32
2020-10-18 16:00:00 19.7 0 Calma 12 Noroeste 0 -- -- 34
2020-10-18 15:00:00 19.2 3 Oeste 14 Sudoeste 0 -- -- 34
2020-10-18 14:00:00 18.2 4 Noroeste 16 Oeste 0 -- -- 37
2020-10-18 13:00:00 17.9 4 Noroeste 9 Sur 0 -- -- 39
2020-10-18 12:00:00 16.2 4 Noroeste 9 Noroeste 0 -- -- 43
2020-10-18 11:00:00 14.5 0 Calma 9 Sur 0 -- -- 51
2020-10-18 10:00:00 10 8 Sur 14 Sur 0 -- -- 64
2020-10-18 09:00:00 8.7 8 Sudeste 15 Sur 0 -- -- 64
2020-10-18 08:00:00 9 9 Sur 15 Sur 0 -- -- 63
2020-10-18 07:00:00 8.9 8 Sudeste 12 Sur 0 -- -- 64
2020-10-18 06:00:00 9 9 Sur 13 Sur 0 -- -- 63
2020-10-18 05:00:00 9.1 10 Sur 15 Sur 0 -- -- 63
2020-10-18 04:00:00 8.8 9 Sur 13 Sudeste 0 -- -- 66
2020-10-18 03:00:00 9.1 8 Sudeste 14 Sudeste 0 -- -- 66
2020-10-18 02:00:00 9.4 10 Sur 15 Sur 0 -- -- 63
2020-10-18 01:00:00 8.7 8 Sudeste 13 Sudeste 0 -- -- 68
2020-10-18 00:00:00 9.5 8 Sudeste 14 Sur 0 -- -- 64
2020-10-17 23:00:00 9.9 9 Sur 17 Sur 0 -- -- 61
2020-10-17 22:00:00 10.4 12 Sur 17 Sur 0 -- -- 58
2020-10-17 21:00:00 10.7 9 Sudeste 18 Sur 0 -- -- 58
2020-10-17 20:00:00 11.9 13 Sur 19 Sur 0 -- -- 56
2020-10-17 19:00:00 14.7 9 Sur 11 Sur 0 -- -- 46
2020-10-17 18:00:00 18.1 3 Oeste 11 Noroeste 0 -- -- 31
2020-10-17 17:00:00 18 4 Sudoeste 12 Oeste 0 -- -- 33
2020-10-17 16:00:00 17.8 3 Sudoeste 18 Noroeste 0 -- -- 34
2020-10-17 15:00:00 17.1 6 Oeste 17 Noroeste 0 -- -- 36
2020-10-17 14:00:00 16.4 7 Noroeste 15 Noroeste 0 -- -- 40
2020-10-17 13:00:00 15.4 3 Noroeste 12 Oeste 0 -- -- 43
2020-10-17 12:00:00 14.9 3 Norte 6 Noroeste 0 -- -- 40
2020-10-17 11:00:00 13.1 2 Sudeste 7 Sudeste 0 -- -- 55
2020-10-17 10:00:00 8.4 4 Sudeste 10 Sur 0 -- -- 70
2020-10-17 09:00:00 6.5 6 Sudeste 10 Sur 0 -- -- 73
2020-10-17 08:00:00 7 7 Sur 13 Sur 0 -- -- 70
2020-10-17 07:00:00 8.8 10 Sur 16 Sur 0 -- -- 58
2020-10-17 06:00:00 7.8 10 Sur 17 Sur 0 -- -- 63
2020-10-17 05:00:00 7.9 10 Sur 14 Sur 0 -- -- 62
2020-10-17 04:00:00 8 8 Sur 15 Sur 0 -- -- 64
2020-10-17 03:00:00 9.3 12 Sur 17 Sur 0 -- -- 59
2020-10-17 02:00:00 9.5 11 Sur 15 Sur 0 -- -- 56
2020-10-17 01:00:00 9.2 10 Sur 16 Sur 0 -- -- 58
2020-10-17 00:00:00 9 9 Sur 13 Sur 0 -- -- 62
2020-10-16 23:00:00 9.5 10 Sur 15 Sur 0 -- -- 62
2020-10-16 22:00:00 9.4 10 Sur 15 Sur 0 -- -- 60
2020-10-16 21:00:00 9.3 9 Sur 14 Sur 0 -- -- 61
2020-10-16 20:00:00 10.5 10 Sur 15 Sur 0 -- -- 58
2020-10-16 19:00:00 14.3 5 Sur 9 Oeste 0 -- -- 47
2020-10-16 18:00:00 16 4 Oeste 10 Oeste 0 -- -- 36
2020-10-16 17:00:00 16.6 4 Oeste 12 Oeste 0 -- -- 34
2020-10-16 16:00:00 16.1 4 Sudoeste 12 Oeste 0 -- -- 37
2020-10-16 15:00:00 15.1 5 Oeste 12 Oeste 0 -- -- 39
2020-10-16 14:00:00 14 5 Oeste 13 Oeste 0 -- -- 43
2020-10-16 13:00:00 13.1 4 Oeste 13 Norte 0 -- -- 46
2020-10-16 12:00:00 11.7 6 Noroeste 11 Noroeste 0 -- -- 51
2020-10-16 11:00:00 11 3 Noroeste 9 Sudeste 0 -- -- 53
2020-10-16 10:00:00 5.6 7 Sur 10 Sur 0 -- -- 76
2020-10-16 09:00:00 5.6 6 Sudeste 13 Sur 0 -- -- 73
2020-10-16 08:00:00 5.7 6 Sur 10 Sur 0 -- -- 72
2020-10-16 07:00:00 5.8 6 Sudeste 13 Sur 0 -- -- 72
2020-10-16 06:00:00 6.2 8 Sur 12 Sur 0 -- -- 68
2020-10-16 05:00:00 7.2 8 Sur 12 Sur 0 -- -- 64
2020-10-16 04:00:00 6.8 8 Sur 12 Sur 0 -- -- 67
2020-10-16 03:00:00 7.3 6 Sudeste 14 Sur 0 -- -- 64
2020-10-16 02:00:00 8.1 6 Sur 14 Sur 0 -- -- 60
2020-10-16 01:00:00 7.7 6 Sur 10 Sur 0 -- -- 63
2020-10-16 00:00:00 8.6 4 Sudeste 14 Sudeste 0 -- -- 59
2020-10-15 23:00:00 8.9 8 Sudeste 14 Sudeste 0 -- -- 57
2020-10-15 22:00:00 8.7 5 Sudeste 12 Sudeste 0 -- -- 56
2020-10-15 21:00:00 9.1 6 Sudeste 12 Sudeste 0 -- -- 56
2020-10-15 20:00:00 12.1 5 Sudeste 21 Nordeste 0 -- -- 47
2020-10-15 19:00:00 15.3 7 Nordeste 23 Nordeste 0 -- -- 36
2020-10-15 18:00:00 16.4 12 Nordeste 24 Nordeste 0 -- -- 33
2020-10-15 17:00:00 16.8 14 Norte 27 Noroeste 0 -- -- 34
2020-10-15 16:00:00 16.6 15 Noroeste 30 Noroeste 0 -- -- 35
2020-10-15 15:00:00 16.6 11 Noroeste 21 Noroeste 0 -- -- 39
2020-10-15 14:00:00 15.7 10 Norte 24 Norte 0 -- -- 39
2020-10-15 13:00:00 14.5 6 Noroeste 15 Noroeste 0 -- -- 42
2020-10-15 12:00:00 12.5 4 Sudoeste 9 Oeste 0 -- -- 46
2020-10-15 11:00:00 11.3 0 Calma 7 Sudeste 0 -- -- 47
2020-10-15 10:00:00 6 6 Sur 11 Sur 0 -- -- 71
2020-10-15 09:00:00 5.5 8 Sur 13 Sur 0 -- -- 67
2020-10-15 08:00:00 5.1 6 Sudeste 11 Sur 0 -- -- 73
2020-10-15 07:00:00 5.3 6 Sudeste 10 Sur 0 -- -- 72
2020-10-15 06:00:00 5.5 5 Sudeste 10 Sur 0 -- -- 72
2020-10-15 05:00:00 6 8 Sur 12 Sur 0 -- -- 69
2020-10-15 04:00:00 6 6 Sur 10 Sur 0 -- -- 72
2020-10-15 03:00:00 6 5 Sudeste 12 Sur 0 -- -- 73
2020-10-15 02:00:00 7 6 Sur 10 Sur 0 -- -- 70
2020-10-15 01:00:00 7.7 6 Sudeste 12 Sur 0 -- -- 69
2020-10-15 00:00:00 9.9 0 Calma 11 Sudeste 0 -- -- 58
2020-10-14 23:00:00 11.5 5 Este 13 Este 0 -- -- 53
2020-10-14 22:00:00 10.1 5 Sudeste 10 Sur 0 -- -- 62
2020-10-14 21:00:00 10.1 5 Sudeste 11 Norte 0 -- -- 59
2020-10-14 20:00:00 13.5 8 Nordeste 21 Norte 0 -- -- 44
2020-10-14 19:00:00 15.5 6 Nordeste 30 Noroeste 0 -- -- 36
2020-10-14 18:00:00 16.4 10 Nordeste 27 Oeste 0 -- -- 34
2020-10-14 17:00:00 16.8 12 Norte 23 Nordeste 0 -- -- 36
2020-10-14 16:00:00 16.7 8 Norte 24 Norte 0 -- -- 34
2020-10-14 15:00:00 16.3 10 Norte 30 Noroeste 0 -- -- 36
2020-10-14 14:00:00 15.3 11 Norte 32 Norte 0 -- -- 41
2020-10-14 13:00:00 14.2 11 Norte 31 Norte 0 -- -- 42
2020-10-14 12:00:00 13.1 16 Norte 32 Norte 0 -- -- 44
2020-10-14 11:00:00 11.4 5 Norte 19 Noroeste 0 -- -- 53
2020-10-14 10:00:00 6.8 3 Este 14 Este 0 -- -- 71
2020-10-14 09:00:00 6.3 7 Sur 15 Sur 0 -- -- 74
2020-10-14 08:00:00 6.1 3 Sudeste 12 Sur 0 -- -- 78
2020-10-14 07:00:00 6.8 4 Sur 13 Sur 0 -- -- 75
2020-10-14 06:00:00 6.5 4 Sudeste 12 Este 0 -- -- 81
2020-10-14 05:00:00 8.2 5 Sudoeste 13 Sudoeste 0 -- -- 75
2020-10-14 04:00:00 8.7 6 Sudoeste 15 Sudoeste 0 -- -- 76
2020-10-14 03:00:00 9.9 7 Oeste 19 Nordeste 0 -- -- 71
2020-10-14 02:00:00 11.9 6 Nordeste 21 Norte 0 -- -- 65
2020-10-14 01:00:00 12.7 7 Nordeste 25 Norte 0 -- -- 64
2020-10-14 00:00:00 13.4 7 Nordeste 23 Norte 0 -- -- 66
2020-10-13 23:00:00 14.1 4 Este 12 Este 0 -- -- 63
2020-10-13 22:00:00 15.1 6 Nordeste 21 Este 0 -- -- 54
2020-10-13 21:00:00 15.7 7 Sur 18 Oeste 0 -- -- 61
2020-10-13 20:00:00 16.5 6 Sur 15 Noroeste 0 -- -- 56
2020-10-13 19:00:00 20.4 6 Noroeste 21 Noroeste 0 -- -- 41
2020-10-13 18:00:00 21.4 8 Noroeste 24 Noroeste 0 -- -- 38
2020-10-13 17:00:00 21.7 9 Noroeste 18 Oeste 0 -- -- 41
2020-10-13 16:00:00 21.5 8 Noroeste 16 Norte 0 -- -- 44
2020-10-13 15:00:00 21.5 5 Norte 18 Noroeste 0 -- -- 48
2020-10-13 14:00:00 20 3 Sudoeste 15 Noroeste 0 -- -- 51
2020-10-13 13:00:00 18.4 8 Noroeste 16 Noroeste 0 -- -- 57
2020-10-13 12:00:00 16.8 5 Oeste 13 Oeste 0 -- -- 58
2020-10-13 11:00:00 -- -- -- -- -- -- -- -- --
2020-10-13 10:00:00 -- -- -- -- -- -- -- -- --
2020-10-13 09:00:00 12 3 Sur 14 Sudoeste 0 -- -- 72
2020-10-13 08:00:00 11.4 5 Sudeste 14 Sur 0 -- -- 75
2020-10-13 07:00:00 11.5 6 Sudeste 14 Sur 0 -- -- 72
2020-10-13 06:00:00 11.2 8 Sudeste 15 Sur 0 -- -- 70
2020-10-13 05:00:00 10.7 8 Sur 13 Sur 0 -- -- 69
2020-10-13 04:00:00 11.9 8 Sur 13 Sur 0 -- -- 65
2020-10-13 03:00:00 10.1 6 Sudeste 14 Sur 0 -- -- 73
2020-10-13 02:00:00 10.7 9 Sur 15 Sur 0 -- -- 68
2020-10-13 01:00:00 -- -- -- -- -- -- -- -- --
2020-10-13 00:00:00 11.5 7 Sur 16 Sudoeste 0 -- -- 61
2020-10-12 23:00:00 10.9 5 Sudeste 10 Sur 0 -- -- 60
2020-10-12 22:00:00 11.1 5 Sudeste 11 Sudeste 0 -- -- 53
2020-10-12 21:00:00 10.8 6 Sudeste 15 Sur 0 -- -- 48
2020-10-12 20:00:00 14.2 4 Sudoeste 25 Norte 0 -- -- 41
2020-10-12 19:00:00 17.2 9 Norte 34 Nordeste 0 -- -- 33
2020-10-12 18:00:00 -- -- -- -- -- -- -- -- --
2020-10-12 17:00:00 18.9 14 Norte 31 Noroeste 0 -- -- 31
2020-10-12 16:00:00 18.7 14 Norte 32 Norte 0 -- -- 33
2020-10-12 15:00:00 18.5 5 Noroeste 15 Noroeste 0 -- -- 31
2020-10-12 14:00:00 17.1 4 Sur 10 Sudeste 0 -- -- 36
2020-10-12 13:00:00 14.7 3 Norte 9 Sudeste 0 -- -- 40
2020-10-12 12:00:00 12.4 3 Noroeste 7 Oeste 0 -- -- 46
2020-10-12 11:00:00 11.4 0 Calma 8 Sudeste 0 -- -- 53
2020-10-12 10:00:00 6.6 5 Sudeste 11 Sur 0 -- -- 74
2020-10-12 09:00:00 5.5 6 Sudeste 12 Sur 0 -- -- 72
2020-10-12 08:00:00 5.5 6 Sudeste 12 Sur 0 -- -- 74
2020-10-12 07:00:00 5.7 5 Sudeste 10 Sur 0 -- -- 73
2020-10-12 06:00:00 6.1 7 Sur 13 Sur 0 -- -- 68
2020-10-12 05:00:00 6.1 6 Sudeste 11 Sur 0 -- -- 68
2020-10-12 04:00:00 -- -- -- -- -- -- -- -- --
2020-10-12 03:00:00 7.3 6 Sudeste 9 Sudeste 0 -- -- 61
2020-10-12 02:00:00 8.3 7 Sudeste 12 Sudeste 0 -- -- 55
2020-10-12 01:00:00 9.1 7 Sur 14 Sur 0 -- -- 45
2020-10-12 00:00:00 10.6 6 Sur 13 Sudoeste 0 -- -- 45
2020-10-11 23:00:00 9.7 5 Sur 14 Sur 0 -- -- 48
2020-10-11 22:00:00 10.2 6 Sudeste 14 Sudeste 0 -- -- 53
2020-10-11 21:00:00 -- -- -- -- -- -- -- -- --
2020-10-11 20:00:00 -- -- -- -- -- -- -- -- --
2020-10-11 19:00:00 17 6 Sudeste 35 Nordeste 0 -- -- 36
2020-10-11 18:00:00 18.5 14 Norte 33 Nordeste 0 -- -- 31
2020-10-11 17:00:00 19.1 13 Nordeste 34 Nordeste 0 -- -- 32
2020-10-11 16:00:00 19 13 Nordeste 36 Norte 0 -- -- 34
2020-10-11 15:00:00 18.2 15 Norte 30 Noroeste 0 -- -- 35
2020-10-11 14:00:00 17.5 13 Noroeste 26 Noroeste 0 -- -- 37
2020-10-11 13:00:00 17.1 4 Sudoeste 17 Noroeste 0 -- -- 35
2020-10-11 12:00:00 15.7 8 Sur 15 Sur 0 -- -- 44
2020-10-11 11:00:00 13 5 Sudeste 11 Sudeste 0 -- -- 60
2020-10-11 10:00:00 8.4 5 Sudeste 8 Sudeste 0 -- -- 84
2020-10-11 09:00:00 7.9 5 Sudeste 9 Sudeste 0 -- -- 80
2020-10-11 08:00:00 8.5 2 Sudoeste 13 Sur 0 -- -- 79
2020-10-11 07:00:00 8.5 5 Sur 9 Sudeste 0 -- -- 82
2020-10-11 06:00:00 9.2 2 Sudeste 11 Sur 0 -- -- 78
2020-10-11 05:00:00 9.8 5 Sudeste 8 Sudeste 0 -- -- 76
2020-10-11 04:00:00 11.1 4 Sudeste 13 Sudoeste 0 -- -- 70
2020-10-11 03:00:00 12.3 5 Sur 12 Sudoeste 0 -- -- 60
2020-10-11 02:00:00 11.4 6 Sur 10 Sur 0 -- -- 73
2020-10-11 01:00:00 12.4 5 Sur 11 Sudoeste 0 -- -- 69
2020-10-11 00:00:00 12.6 6 Sur 12 Sur 0 -- -- 68
2020-10-10 23:00:00 12.8 6 Sudeste 12 Sur 0 -- -- 69
2020-10-10 22:00:00 14.4 5 Sudeste 12 Sudoeste 0 -- -- 64
2020-10-10 21:00:00 15.3 4 Sur 11 Sur 0 -- -- 60
2020-10-10 20:00:00 19 4 Este 23 Nordeste 0 -- -- 48
2020-10-10 19:00:00 21.9 7 Norte 27 Norte 0 -- -- 40
2020-10-10 18:00:00 23 10 Norte 26 Norte 0 -- -- 39
2020-10-10 17:00:00 23.7 11 Nordeste 27 Norte 0 -- -- 42
2020-10-10 16:00:00 23.9 6 Norte 30 Norte 0 -- -- 43
2020-10-10 15:00:00 22.8 12 Noroeste 28 Noroeste 0 -- -- 46
2020-10-10 14:00:00 22.6 9 Noroeste 18 Noroeste 0 -- -- 45
2020-10-10 13:00:00 20 6 Sudoeste 19 Sudoeste 0 -- -- 55
2020-10-10 12:00:00 19.6 8 Oeste 14 Oeste 0 -- -- 49
2020-10-10 11:00:00 18.7 2 Nordeste 5 Nordeste 0 -- -- 54
2020-10-10 10:00:00 15 2 Sudoeste 14 Sur 0 -- -- 58
2020-10-10 09:00:00 13 4 Sur 14 Sur 0 -- -- 66
2020-10-10 08:00:00 13.2 7 Sudeste 14 Sur 0 -- -- 66
2020-10-10 07:00:00 13.4 9 Sur 14 Sur 0 -- -- 63
2020-10-10 06:00:00 13.9 9 Sur 14 Sur 0 -- -- 63
2020-10-10 05:00:00 13.8 11 Sur 15 Sur 0 -- -- 62
2020-10-10 04:00:00 13.8 8 Sudeste 12 Sur 0 -- -- 64
2020-10-10 03:00:00 15.2 11 Sur 18 Sur 0 -- -- 56
2020-10-10 02:00:00 15.2 8 Sudeste 14 Sur 0 -- -- 59
2020-10-10 01:00:00 15.5 8 Sudeste 15 Sur 0 -- -- 57
2020-10-10 00:00:00 15.4 7 Sudeste 15 Sur 0 -- -- 60
2020-10-09 23:00:00 16.3 7 Sudeste 17 Sur 0 -- -- 58
2020-10-09 22:00:00 17.2 7 Sudeste 13 Sur 0 -- -- 54
2020-10-09 21:00:00 17.5 8 Sur 14 Sur 0 -- -- 55
2020-10-09 20:00:00 18.3 9 Sudeste 17 Sur 0 -- -- 53
2020-10-09 19:00:00 21.3 9 Sur 14 Sur 0 -- -- 44
2020-10-09 18:00:00 25.3 4 Sur 9 Sudoeste 0 -- -- 33
2020-10-09 17:00:00 25.8 3 Sudoeste 14 Noroeste 0 -- -- 23
2020-10-09 16:00:00 25.4 4 Oeste 12 Noroeste 0 -- -- 32
2020-10-09 15:00:00 24.4 5 Noroeste 13 Noroeste 0 -- -- 39
2020-10-09 14:00:00 23.3 5 Oeste 12 Noroeste 0 -- -- 40
2020-10-09 13:00:00 22.7 4 Noroeste 9 Noroeste 0 -- -- 41
2020-10-09 12:00:00 21.7 2 Oeste 5 Norte 0 -- -- 41
2020-10-09 11:00:00 20.2 2 Sudeste 11 Sur 0 -- -- 54
2020-10-09 10:00:00 15.3 8 Sudeste 14 Sur 0 -- -- 66
2020-10-09 09:00:00 13.7 8 Sudeste 12 Sur 0 -- -- 67
2020-10-09 08:00:00 13.8 10 Sur 16 Sur 0 -- -- 66
2020-10-09 07:00:00 13.8 8 Sudeste 11 Sudeste 0 -- -- 65
2020-10-09 06:00:00 14.9 8 Sudeste 17 Sur 0 -- -- 58
2020-10-09 05:00:00 15.2 9 Sur 17 Sudeste 0 -- -- 53
2020-10-09 04:00:00 14.6 10 Sur 17 Sur 0 -- -- 56
2020-10-09 03:00:00 16.1 10 Sudeste 18 Sur 0 -- -- 44
2020-10-09 02:00:00 17.2 13 Sur 18 Sur 0 -- -- 44
2020-10-09 01:00:00 16.2 11 Sur 16 Sudeste 0 -- -- 53
2020-10-09 00:00:00 15.7 11 Sur 15 Sur 0 -- -- 58
2020-10-08 23:00:00 16.5 9 Sur 15 Sur 0 -- -- 57
2020-10-08 22:00:00 16.4 8 Sudeste 14 Sudeste 0 -- -- 57
2020-10-08 21:00:00 17.1 9 Sur 15 Sur 0 -- -- 52
2020-10-08 20:00:00 18.6 9 Sur 13 Sur 0 -- -- 52
2020-10-08 19:00:00 20.7 7 Sudeste 10 Sur 0 -- -- 50
2020-10-08 18:00:00 24.4 3 Sur 16 Sudoeste 0 -- -- 40
2020-10-08 17:00:00 25.2 6 Oeste 18 Oeste 0 -- -- 34
2020-10-08 16:00:00 25.2 4 Noroeste 15 Oeste 0 -- -- 38
2020-10-08 15:00:00 23.3 7 Oeste 15 Noroeste 0 -- -- 42
2020-10-08 14:00:00 23.1 5 Noroeste 14 Oeste 0 -- -- 44
2020-10-08 13:00:00 22.2 4 Noroeste 14 Oeste 0 -- -- 50
2020-10-08 12:00:00 22 0 Calma 10 Oeste 0 -- -- 53
2020-10-08 11:00:00 20.9 5 Oeste 10 Oeste 0 -- -- 51
2020-10-08 10:00:00 17.6 3 Sur 10 Sur 0 -- -- 60
2020-10-08 09:00:00 14.6 6 Sur 15 Sudeste 0 -- -- 68
2020-10-08 08:00:00 13.4 8 Sudeste 12 Este 0 -- -- 72
2020-10-08 07:00:00 13.7 8 Sudeste 12 Sur 0 -- -- 71
2020-10-08 06:00:00 13.2 8 Sur 14 Sur 0 -- -- 73
2020-10-08 05:00:00 14.1 8 Sudeste 14 Sur 0 -- -- 70
2020-10-08 04:00:00 14 9 Sudeste 16 Sur 0 -- -- 72
2020-10-08 03:00:00 14 9 Sudeste 16 Sur 0 -- -- 74
2020-10-08 02:00:00 14.7 10 Sur 17 Sur 0 -- -- 71
2020-10-08 01:00:00 16.1 12 Sur 17 Sudeste 0 -- -- 64
2020-10-08 00:00:00 15.3 10 Sudeste 16 Sudeste 0 -- -- 70
2020-10-07 23:00:00 15.7 9 Sudeste 15 Sur 0 -- -- 69
2020-10-07 22:00:00 17 10 Sur 15 Sur 0 -- -- 61
2020-10-07 21:00:00 17.2 10 Sur 19 Sudeste 0 -- -- 62
2020-10-07 20:00:00 18.4 14 Sur 17 Sur 0 -- -- 57
2020-10-07 19:00:00 21.7 10 Sur 14 Sur 0 -- -- 47
2020-10-07 18:00:00 25.4 2 Sur 6 Oeste 0 -- -- 35
2020-10-07 17:00:00 25.4 3 Sudoeste 10 Sudoeste 0 -- -- 34
2020-10-07 16:00:00 24.5 5 Noroeste 12 Oeste 0 -- -- 33
2020-10-07 15:00:00 23.8 6 Noroeste 12 Oeste 0 -- -- 32
2020-10-07 14:00:00 22.7 3 Sudoeste 13 Oeste 0 -- -- 36
2020-10-07 13:00:00 21.3 3 Sudoeste 8 Oeste 0 -- -- 38
2020-10-07 12:00:00 18.7 5 Oeste 10 Noroeste 0 -- -- 50
2020-10-07 11:00:00 17.2 0 Calma 9 Sudeste 0 -- -- 49
2020-10-07 10:00:00 12 6 Sudeste 15 Sur 0 -- -- 62
2020-10-07 09:00:00 9.6 7 Sur 12 Sur 0 -- -- 60
2020-10-07 08:00:00 9.7 8 Sur 15 Sur 0 -- -- 61
2020-10-07 07:00:00 9.5 7 Sudeste 12 Sur 0 -- -- 65
2020-10-07 06:00:00 9.6 6 Sudeste 11 Sudeste 0 -- -- 70
2020-10-07 05:00:00 10 6 Sudeste 16 Sur 0 -- -- 73
2020-10-07 04:00:00 11.6 6 Sudeste 15 Sur 0 -- -- 67
2020-10-07 03:00:00 11.6 7 Sudeste 15 Sur 0 -- -- 76
2020-10-07 02:00:00 13.1 10 Sur 15 Sur 0 -- -- 68
2020-10-07 01:00:00 13.7 10 Sudeste 19 Sur 0 -- -- 73
2020-10-07 00:00:00 13.9 8 Sudeste 16 Sur 0 -- -- 78
2020-10-06 23:00:00 15.3 6 Sudeste 14 Sur 0 -- -- 75
2020-10-06 22:00:00 15.7 9 Sudeste 17 Sudeste 0 -- -- 75
2020-10-06 21:00:00 16.5 11 Sur 16 Sur 0 -- -- 73
2020-10-06 20:00:00 18.4 11 Sur 17 Sur 0 -- -- 68
2020-10-06 19:00:00 22.8 5 Noroeste 17 Norte 0 -- -- 51
2020-10-06 18:00:00 22.8 8 Norte 18 Norte 0 -- -- 48
2020-10-06 17:00:00 23.4 8 Norte 18 Noroeste 0 -- -- 47
2020-10-06 16:00:00 23.2 5 Noroeste 14 Noroeste 0 -- -- 51
2020-10-06 15:00:00 22.2 4 Oeste 15 Noroeste 0 -- -- 54
2020-10-06 14:00:00 20.8 7 Noroeste 13 Norte 0 -- -- 60
2020-10-06 13:00:00 19.5 4 Sudoeste 10 Noroeste 0 -- -- 64
2020-10-06 12:00:00 17.8 4 Sudoeste 28 Nordeste 0 -- -- 70
2020-10-06 11:00:00 16.6 10 Nordeste 24 Norte 0 -- -- 75
2020-10-06 10:00:00 14.6 4 Sudoeste 12 Sur 0 -- -- 84
2020-10-06 09:00:00 12.2 6 Sudeste 11 Sudeste 0 -- -- 90
2020-10-06 08:00:00 11.5 4 Sur 12 Sudeste 0 -- -- 92
2020-10-06 07:00:00 12.1 6 Sur 9 Sur 0 -- -- 89
2020-10-06 06:00:00 12.1 4 Sudeste 10 Sur 0 -- -- 88
2020-10-06 05:00:00 13.5 3 Sudoeste 10 Oeste 0 -- -- 81
2020-10-06 04:00:00 13.4 5 Sur 13 Sur 0 -- -- 83
2020-10-06 03:00:00 12.4 6 Sudeste 10 Sur 0 -- -- 85
2020-10-06 02:00:00 13.2 6 Sur 13 Sudeste 0 -- -- 82
2020-10-06 01:00:00 13.5 4 Sudeste 8 Sur 0 -- -- 79
2020-10-06 00:00:00 15.4 0 Calma 10 Sudeste 0 -- -- 70
2020-10-05 23:00:00 15 5 Sur 10 Sudeste 0 -- -- 69
2020-10-05 22:00:00 14.8 4 Sudeste 9 Este 0 -- -- 69
2020-10-05 21:00:00 12.6 7 Sudeste 14 Sudeste 0 -- -- 76
2020-10-05 20:00:00 14.7 6 Sur 9 Sur 0 -- -- 65
2020-10-05 19:00:00 18.6 5 Norte 15 Nordeste 0 -- -- 46
2020-10-05 18:00:00 19.1 5 Norte 20 Norte 0 -- -- 44
2020-10-05 17:00:00 18.8 8 Noroeste 23 Noroeste 0 -- -- 42
2020-10-05 16:00:00 18.3 7 Norte 25 Nordeste 0 -- -- 42
2020-10-05 15:00:00 17.3 5 Nordeste 23 Nordeste 0 -- -- 41
2020-10-05 14:00:00 16.5 4 Sudeste 21 Norte 0 -- -- 47
2020-10-05 13:00:00 15.2 10 Norte 27 Nordeste 0 -- -- 53
2020-10-05 12:00:00 14.3 11 Nordeste 24 Nordeste 0 -- -- 54
2020-10-05 11:00:00 13.4 10 Nordeste 24 Nordeste 0 -- -- 53
2020-10-05 10:00:00 11.5 6 Este 17 Este 0 -- -- 58
2020-10-05 09:00:00 9.1 0 Calma 14 Este 0 -- -- 68
2020-10-05 08:00:00 8.1 7 Sudeste 11 Sudeste 0 -- -- 77
2020-10-05 07:00:00 7.8 4 Sudeste 12 Noroeste 0 -- -- 84
2020-10-05 06:00:00 9.3 3 Sur 11 Oeste 0 -- -- 76
2020-10-05 05:00:00 10.1 5 Oeste 17 Este 0 -- -- 69
2020-10-05 04:00:00 8.6 6 Sudeste 14 Sudeste 0 -- -- 79
2020-10-05 03:00:00 8.5 5 Sur 20 Noroeste 0 -- -- 79
2020-10-05 02:00:00 10.9 7 Nordeste 24 Este 0 -- -- 69
2020-10-05 01:00:00 11.2 6 Nordeste 22 Nordeste 0 -- -- 70
2020-10-05 00:00:00 9.8 0 Calma 12 Este 0 -- -- 77
2020-10-04 23:00:00 8.5 5 Sur 10 Sur 0 -- -- 78
2020-10-04 22:00:00 8.7 6 Sudeste 11 Sur 0 -- -- 81
2020-10-04 21:00:00 11.4 4 Sudoeste 16 Noroeste 0 -- -- 61
2020-10-04 20:00:00 13.6 7 Noroeste 19 Noroeste 0 -- -- 51
2020-10-04 19:00:00 15.4 11 Noroeste 37 Noroeste 0 -- -- 45
2020-10-04 18:00:00 15.8 14 Noroeste 31 Oeste 0 -- -- 43
2020-10-04 17:00:00 16 13 Noroeste 28 Noroeste 0 -- -- 45
2020-10-04 16:00:00 15.7 10 Norte 24 Noroeste 0 -- -- 52
2020-10-04 15:00:00 14.8 7 Noroeste 23 Noroeste 0 -- -- 54
2020-10-04 14:00:00 14 6 Oeste 25 Norte 0 -- -- 61
2020-10-04 13:00:00 12.8 4 Noroeste 9 Sudeste 0 -- -- 75
2020-10-04 12:00:00 10.6 5 Sudeste 8 Sudeste 0.4 -- -- 92
2020-10-04 11:00:00 9.4 0 Calma 8 Noroeste 0.2 -- -- 94
2020-10-04 10:00:00 9.2 5 Noroeste 10 Norte 0 -- -- 90
2020-10-04 09:00:00 8.9 0 Calma 13 Oeste 0 -- -- 87
2020-10-04 08:00:00 8.5 0 Calma 6 Este 0 -- -- 88
2020-10-04 07:00:00 8.2 3 Sudeste 6 Sudeste 0 -- -- 88
2020-10-04 06:00:00 7.7 3 Sudeste 15 Sur 0 -- -- 87
2020-10-04 05:00:00 7 9 Sur 12 Sur 0 -- -- 86
2020-10-04 04:00:00 7.4 9 Sur 16 Sur 0 -- -- 82
2020-10-04 03:00:00 8.3 10 Sur 14 Sur 0 -- -- 82
2020-10-04 02:00:00 8.7 5 Sur 8 Sudeste 0 -- -- 82
2020-10-04 01:00:00 8.3 4 Sur 12 Sur 0 -- -- 79
2020-10-04 00:00:00 7.7 9 Sur 14 Sur 0 -- -- 81
2020-10-03 23:00:00 7.8 7 Sudeste 13 Sudeste 0 -- -- 82
2020-10-03 22:00:00 8.8 6 Sudeste 12 Sur 0 -- -- 77
2020-10-03 21:00:00 9.2 6 Sudeste 9 Sudeste 0 -- -- 72
2020-10-03 20:00:00 12.3 3 Oeste 19 Noroeste 0 -- -- 54
2020-10-03 19:00:00 13.8 7 Noroeste 26 Noroeste 0 -- -- 50
2020-10-03 18:00:00 13.5 11 Noroeste 25 Noroeste 0 -- -- 49
2020-10-03 17:00:00 13.7 11 Norte 28 Noroeste 0 -- -- 50
2020-10-03 16:00:00 13.5 7 Norte 22 Norte 0 -- -- 50
2020-10-03 15:00:00 13.7 5 Norte 20 Nordeste 0 -- -- 50
2020-10-03 14:00:00 12.5 9 Norte 23 Norte 0 -- -- 55
2020-10-03 13:00:00 11.7 9 Noroeste 20 Noroeste 0 -- -- 59
2020-10-03 12:00:00 10.3 9 Noroeste 20 Nordeste 0 -- -- 60
2020-10-03 11:00:00 10.1 3 Nordeste 17 Nordeste 0 -- -- 60
2020-10-03 10:00:00 8.4 8 Este 15 Este 0 -- -- 69
2020-10-03 09:00:00 7.7 5 Este 13 Oeste 0 -- -- 72
2020-10-03 08:00:00 7.6 2 Sudeste 19 Noroeste 0 -- -- 77
2020-10-03 07:00:00 7.8 5 Nordeste 18 Nordeste 0 -- -- 72
2020-10-03 06:00:00 7.9 3 Nordeste 18 Norte 0 -- -- 71
2020-10-03 05:00:00 8 7 Norte 21 Norte 0 -- -- 70
2020-10-03 04:00:00 7.8 2 Sudoeste 5 Este 0 -- -- 77
2020-10-03 03:00:00 8 2 Noroeste 7 Noroeste 0 -- -- 78
2020-10-03 02:00:00 8.1 3 Sudoeste 8 Oeste 0 -- -- 73
2020-10-03 01:00:00 7.9 4 Este 8 Este 0 -- -- 71
2020-10-03 00:00:00 6.7 6 Sudeste 11 Sudeste 0 -- -- 84
2020-10-02 23:00:00 6.6 5 Sudeste 8 Sudeste 0 -- -- 84
2020-10-02 22:00:00 7.9 0 Calma 14 Noroeste 0 -- -- 74
2020-10-02 21:00:00 10 10 Noroeste 24 Noroeste 0 -- -- 57
2020-10-02 20:00:00 10.9 12 Noroeste 32 Oeste 0 -- -- 54
2020-10-02 19:00:00 12.3 17 Noroeste 31 Noroeste 0 -- -- 51
2020-10-02 18:00:00 12.5 13 Noroeste 27 Oeste 0 -- -- 56
2020-10-02 17:00:00 11.1 6 Noroeste 17 Sudoeste 0 -- -- 61
2020-10-02 16:00:00 10.2 6 Sudoeste 22 Norte 0.2 -- -- 69
2020-10-02 15:00:00 9.3 12 Norte 38 Nordeste 0.4 -- -- 81
2020-10-02 14:00:00 10.4 2 Nordeste 44 Norte 0.2 -- -- 78
2020-10-02 13:00:00 10.9 16 Noroeste 41 Norte 0.2 -- -- 81
2020-10-02 12:00:00 12.4 8 Noroeste 30 Noroeste 0 -- -- 77
2020-10-02 11:00:00 12.9 13 Noroeste 41 Oeste 0.6 -- -- 80
2020-10-02 10:00:00 14 14 Oeste 52 Oeste 1 -- -- 96
2020-10-02 09:00:00 14.2 19 Sudoeste 63 Sudoeste 2.4 -- -- 93
2020-10-02 08:00:00 14 19 Sudoeste 53 Oeste 0.8 -- -- 92
2020-10-02 07:00:00 13.4 15 Oeste 36 Oeste 0 -- -- 95
2020-10-02 06:00:00 12.6 8 Noroeste 32 Sudoeste 0 -- -- 94
2020-10-02 05:00:00 12.3 7 Oeste 25 Oeste 0 -- -- 89
2020-10-02 04:00:00 12.5 7 Sudoeste 19 Sudoeste 0 -- -- 81
2020-10-02 03:00:00 12.3 4 Oeste 17 Sudoeste 0 -- -- 77
2020-10-02 02:00:00 12.4 3 Sudeste 6 Noroeste 0 -- -- 75
2020-10-02 01:00:00 12.5 0 Calma 7 Sudeste 0 -- -- 76
2020-10-02 00:00:00 12.2 4 Sur 11 Sur 0 -- -- 74
2020-10-01 23:00:00 12.7 4 Sudeste 9 Sur 0 -- -- 74
2020-10-01 22:00:00 13.3 5 Sudeste 15 Sur 0 -- -- 71
2020-10-01 21:00:00 14.9 6 Sur 13 Sudoeste 0 -- -- 62
2020-10-01 20:00:00 16 5 Sudeste 14 Oeste 0 -- -- 59
2020-10-01 19:00:00 18.9 5 Oeste 22 Oeste 0 -- -- 45
2020-10-01 18:00:00 19.8 9 Oeste 19 Oeste 0 -- -- 43
2020-10-01 17:00:00 20 10 Oeste 24 Oeste 0 -- -- 41
2020-10-01 16:00:00 19.8 9 Noroeste 22 Oeste 0 -- -- 44
2020-10-01 15:00:00 19.5 5 Noroeste 14 Noroeste 0 -- -- 49
2020-10-01 14:00:00 19.1 9 Noroeste 16 Noroeste 0 -- -- 51
2020-10-01 13:00:00 18.3 4 Oeste -- -- -- -- -- 57
2020-10-01 12:00:00 -- -- -- -- -- -- -- -- --
2020-10-01 11:00:00 -- -- -- -- -- -- -- -- --
2020-10-01 10:00:00 -- 4 Sudoeste 12 Sur 0 -- -- --
2020-10-01 09:00:00 13.6 6 Sur 13 Oeste 0 -- -- 68
2020-10-01 08:00:00 14.5 3 Sudeste 15 Este 0 -- -- 68
2020-10-01 07:00:00 13 5 Sudeste 13 Sudeste 0 -- -- 61
2020-10-01 06:00:00 13.5 8 Sudeste 15 Sur 0 -- -- 51
2020-10-01 05:00:00 13.2 3 Sur 13 Sudoeste 0 -- -- 67
2020-10-01 04:00:00 13 4 Sudeste 10 Sudeste 0 -- -- 68
2020-10-01 03:00:00 13.2 2 Sudeste 11 Sur 0 -- -- 68
2020-10-01 02:00:00 14.5 6 Sudeste 13 Sur 0 -- -- 66
2020-10-01 01:00:00 14.9 6 Sudeste 17 Sur 0 -- -- 60
2020-10-01 00:00:00 15.7 7 Sur 16 Sur 0 -- -- 54
2020-09-30 23:00:00 16.2 11 Sur 16 Sur 0 -- -- 50
2020-09-30 22:00:00 16 6 Sudeste 14 Sur 0 -- -- 56
2020-09-30 21:00:00 17.6 10 Sur 18 Sur 0 -- -- 49
2020-09-30 20:00:00 19.2 13 Sur 15 Sur 0 -- -- 42
2020-09-30 19:00:00 23.5 4 Sur 15 Oeste 0 -- -- 32
2020-09-30 18:00:00 24.7 6 Oeste 22 Oeste 0 -- -- 25
2020-09-30 17:00:00 24.7 7 Oeste 20 Oeste 0 -- -- 28
2020-09-30 16:00:00 24.8 8 Noroeste 21 Noroeste 0 -- -- 30
2020-09-30 15:00:00 24.2 10 Oeste 18 Noroeste 0 -- -- 30
2020-09-30 14:00:00 23.7 8 Oeste 17 Oeste 0 -- -- 30
2020-09-30 13:00:00 23.4 2 Noroeste 6 Noroeste 0 -- -- 34
2020-09-30 12:00:00 21.3 0 Calma 4 Norte 0 -- -- 35
2020-09-30 11:00:00 20.4 0 Calma 7 Sudeste 0 -- -- 44
2020-09-30 10:00:00 16.1 5 Sudeste 14 Sur 0 -- -- 59
2020-09-30 09:00:00 15.7 12 Sur 17 Sur 0 -- -- 48
2020-09-30 08:00:00 14.2 9 Sudeste 14 Sur 0 -- -- 53
2020-09-30 07:00:00 14.2 8 Sudeste 14 Sur 0 -- -- 54
2020-09-30 06:00:00 15 10 Sur 15 Sur 0 -- -- 52
2020-09-30 05:00:00 14.6 8 Sur 15 Sur 0 -- -- 52
2020-09-30 04:00:00 14.6 10 Sudeste 17 Sur 0 -- -- 55
2020-09-30 03:00:00 15.4 13 Sur 17 Sur 0 -- -- 49
2020-09-30 02:00:00 15.1 7 Sudeste 12 Sur 0 -- -- 53
2020-09-30 01:00:00 16 6 Sudeste 14 Sur 0 -- -- 50
2020-09-30 00:00:00 15.5 10 Sudeste 15 Sur 0 -- -- 53